• Join FlightAware (Why Join?)
  • Login
  • US Flag 
01:28AM EDT


 

Airport Tracker/Info


-or-


 

Live Flight TrackerFlight Track Log ✈ N28KP ✈ 17-Sep-2013 ✈ KBTM - KHLN

Flight Track Log - Related Links

Times and Time Zones

All times are in EDT time to prevent confusion due to time zone crossing. See the N28KP flight status page for this flight to view local times or setup timezone preferences in your user account.

Time Position Orientation Groundspeed Altitude Reporting Facility
EDT Latitude Longitude Course Direction KTS MPH feet Rate Location/Type
04:29PM 46.2146 -112.2940 41° Northeast  Level Estimated
04:30PM 46.2619 -112.2738 17° North  Level FlightAware Approximate
04:31PM 46.3091 -112.2535 17° North  Level FlightAware Approximate
04:32PM 46.3564 -112.2332 17° North  Level FlightAware Approximate
04:33PM 46.3970 -112.1927 44° Northeast  Level Estimated
04:34PM 46.4370 -112.1511 36° Northeast  Level FlightAware Approximate
04:35PM 46.4771 -112.1094 36° Northeast  Level FlightAware Approximate
04:36PM 46.5180 -112.0695 North  Level Estimated
04:37PM 46.5589 -112.0296 54° Northeast  Level Estimated
04:38PM 46.5998 -111.9896 54° Northeast  Level Estimated
04:39PM 46.6068 -111.9827 54° Northeast  Level Estimated
04:40PM 46.6068 -111.9827 54° Northeast  Level Estimated
04:41PM 46.6068 -111.9827 54° Northeast  Level Estimated
04:42PM 46.6068 -111.9827 54° Northeast  Level Estimated
04:43PM 46.6068 -111.9827 54° Northeast  Level Estimated
04:44PM 46.6068 -111.9827 54° Northeast  Level Estimated
04:45PM 46.6068 -111.9827 54° Northeast  Level Estimated
04:46PM 46.6068 -111.9827 54° Northeast  Level Estimated
04:47PM 46.6068 -111.9827 54° Northeast  Level Estimated
04:48PM 46.6068 -111.9827 54° Northeast  Level Estimated
04:49PM 46.6068 -111.9827 54° Northeast  Level Estimated
04:50PM 46.6068 -111.9827 54° Northeast  Level Estimated
04:51PM 46.6068 -111.9827 54° Northeast  Level Estimated
04:52PM 46.6068 -111.9827 54° Northeast  Level Estimated
04:53PM 46.6068 -111.9827 54° Northeast  Level Estimated
04:54PM 46.6068 -111.9827 54° Northeast  Level Estimated
04:55PM 46.6068 -111.9827 54° Northeast  Level Estimated
04:56PM 46.6068 -111.9827 54° Northeast  Level Estimated
04:57PM 46.6068 -111.9827 54° Northeast  Level Estimated
04:58PM 46.6068 -111.9827 54° Northeast  Level Estimated